Time;durP1;ratioP1;P1;durP2;ratioP2;P2;SDS_P1;SDS_P2;PMS_P1;PMS_P2;Temp;Humidity;BMP_temperature;BMP_pressure;BME280_temperature;BME280_humidity;BME280_pressure;Samples;Min_cycle;Max_cycle;Signal;HPM_P1;HPM_P2
2022/12/25 00:02:04;;;;;;;28.85;17.63;;;10.70;92.90;;;;;;4994868;28;20442;-75
2022/12/25 00:04:30;;;;;;;29.50;16.92;;;10.70;92.80;;;;;;4998575;28;20134;-78
2022/12/25 00:06:55;;;;;;;29.02;17.58;;;10.70;92.80;;;;;;4996326;28;20499;-77
2022/12/25 00:09:21;;;;;;;35.15;18.88;;;10.70;92.70;;;;;;4999294;28;20042;-76
2022/12/25 00:11:47;;;;;;;30.98;19.23;;;10.70;92.70;;;;;;4996304;28;20405;-76
2022/12/25 00:14:12;;;;;;;30.67;17.75;;;10.80;92.80;;;;;;4998347;28;20046;-76
2022/12/25 00:16:38;;;;;;;32.45;20.25;;;10.80;92.70;;;;;;4997837;28;20088;-77
2022/12/25 00:19:03;;;;;;;30.67;19.02;;;10.80;92.70;;;;;;5000022;28;20038;-78
2022/12/25 00:21:29;;;;;;;31.13;20.40;;;10.80;92.70;;;;;;4994106;28;20149;-76
2022/12/25 00:23:57;;;;;;;37.40;22.30;;;10.80;92.70;;;;;;5000905;28;20048;-77
2022/12/25 00:26:23;;;;;;;34.50;21.27;;;10.80;92.70;;;;;;4998998;28;20041;-79
2022/12/25 00:28:54;;;;;;;33.17;21.70;;;10.80;92.60;;;;;;4997750;28;20034;-77
2022/12/25 00:31:20;;;;;;;37.00;21.48;;;10.80;92.60;;;;;;4993794;28;20056;-76
2022/12/25 00:33:47;;;;;;;39.30;23.17;;;10.80;92.50;;;;;;4994911;28;20026;-78
2022/12/25 00:36:15;;;;;;;34.75;22.75;;;10.80;92.40;;;;;;4998719;28;20046;-78
2022/12/25 00:38:41;;;;;;;34.03;22.08;;;10.80;92.40;;;;;;4999724;28;20046;-78
2022/12/25 00:44:11;;;;;;;41.65;23.67;;;10.80;92.40;;;;;;4992675;28;20038;-78
2022/12/25 00:46:37;;;;;;;37.55;23.75;;;10.80;92.40;;;;;;4995541;28;20037;-78
2022/12/25 00:49:03;;;;;;;39.60;23.63;;;10.80;92.40;;;;;;4993793;28;20076;-78
2022/12/25 00:51:29;;;;;;;35.45;22.65;;;10.70;92.50;;;;;;4996335;28;20153;-78
2022/12/25 00:53:55;;;;;;;40.25;24.15;;;10.70;92.50;;;;;;4998339;28;20096;-77
2022/12/25 00:56:20;;;;;;;34.15;22.33;;;10.70;92.50;;;;;;4995715;28;20232;-78
2022/12/25 00:58:46;;;;;;;34.13;22.30;;;10.70;92.50;;;;;;4999690;28;20070;-78
2022/12/25 01:01:12;;;;;;;41.83;21.80;;;10.70;92.50;;;;;;4990971;28;20068;-79
2022/12/25 01:03:37;;;;;;;37.05;23.10;;;10.60;92.60;;;;;;4997087;28;20561;-77
2022/12/25 01:06:07;;;;;;;39.53;23.23;;;10.60;92.60;;;;;;4994937;28;20065;-78
2022/12/25 01:08:35;;;;;;;34.75;21.90;;;10.70;92.60;;;;;;4979188;28;20430;-78
2022/12/25 01:11:07;;;;;;;36.03;21.80;;;10.60;92.60;;;;;;4992066;28;20026;-78
2022/12/25 01:13:35;;;;;;;32.78;21.85;;;10.60;92.60;;;;;;4997812;28;20065;-77
2022/12/25 01:16:09;;;;;;;31.50;20.25;;;10.60;92.60;;;;;;4997139;28;20087;-78
2022/12/25 01:18:35;;;;;;;35.00;20.67;;;10.60;92.70;;;;;;4998075;28;20060;-78
2022/12/25 01:21:08;;;;;;;34.28;21.00;;;10.60;92.70;;;;;;4995914;28;20467;-78
2022/12/25 01:23:34;;;;;;;31.65;19.42;;;10.60;92.70;;;;;;4994880;28;20079;-77
2022/12/25 01:26:04;;;;;;;29.55;19.23;;;10.60;92.70;;;;;;4996901;28;20329;-77
2022/12/25 01:28:30;;;;;;;31.80;18.10;;;10.50;92.80;;;;;;4993608;28;20042;-78
2022/12/25 01:30:56;;;;;;;30.85;18.40;;;10.60;92.60;;;;;;4994919;28;20056;-77
2022/12/25 01:33:21;;;;;;;26.88;17.13;;;10.60;92.60;;;;;;4993490;28;20033;-76
2022/12/25 01:35:47;;;;;;;25.98;16.48;;;10.60;92.60;;;;;;4992386;28;20489;-77
2022/12/25 01:38:13;;;;;;;28.08;17.38;;;10.60;92.60;;;;;;4993215;28;20475;-77
2022/12/25 01:40:39;;;;;;;27.75;16.90;;;10.60;92.50;;;;;;4989531;28;20047;-78
2022/12/25 01:43:28;;;;;;;27.67;16.38;;;10.60;92.40;;;;;;4993195;28;20120;-77
2022/12/25 01:45:53;;;;;;;26.42;15.55;;;10.60;92.40;;;;;;4991120;28;20581;-78
2022/12/25 01:48:24;;;;;;;24.30;14.10;;;10.60;92.50;;;;;;4993693;28;20390;-77
2022/12/25 01:50:55;;;;;;;24.02;13.18;;;10.60;92.50;;;;;;4992791;28;20050;-77
2022/12/25 01:53:21;;;;;;;21.48;13.27;;;10.60;92.50;;;;;;4993566;28;20038;-77
2022/12/25 01:55:49;;;;;;;22.15;13.18;;;10.50;92.50;;;;;;4994983;28;20054;-78
2022/12/25 01:58:16;;;;;;;24.20;12.43;;;10.50;92.50;;;;;;4992505;28;20108;-78
2022/12/25 02:00:41;;;;;;;22.45;11.82;;;10.50;92.40;;;;;;4993538;28;20064;-78
2022/12/25 02:03:07;;;;;;;23.00;11.40;;;10.50;92.40;;;;;;4990830;28;20044;-78
2022/12/25 02:05:34;;;;;;;15.95;9.70;;;10.50;92.30;;;;;;4995356;28;20037;-78
2022/12/25 02:08:09;;;;;;;15.68;10.15;;;10.50;92.30;;;;;;4992488;28;21237;-78
2022/12/25 02:10:35;;;;;;;17.77;10.02;;;10.40;92.30;;;;;;4989119;28;20034;-79
2022/12/25 02:13:01;;;;;;;21.33;9.80;;;10.40;92.30;;;;;;4994386;28;20038;-75
2022/12/25 02:15:39;;;;;;;17.70;9.55;;;10.40;92.30;;;;;;4993282;28;20037;-76
2022/12/25 02:18:26;;;;;;;19.50;8.23;;;10.40;92.40;;;;;;4991576;28;20038;-76
2022/12/25 02:20:54;;;;;;;15.68;8.43;;;10.50;92.30;;;;;;4991977;28;20097;-78
2022/12/25 02:23:39;;;;;;;16.20;7.45;;;10.50;92.20;;;;;;4992677;28;20437;-76
2022/12/25 02:26:24;;;;;;;16.10;7.43;;;10.40;92.20;;;;;;4988396;28;20449;-76
2022/12/25 02:29:03;;;;;;;11.05;6.85;;;10.40;92.10;;;;;;4994440;28;20115;-77
2022/12/25 02:31:58;;;;;;;17.15;6.80;;;10.40;92.20;;;;;;4991347;28;20064;-77
2022/12/25 02:34:27;;;;;;;13.27;7.55;;;10.50;92.20;;;;;;4991310;28;20040;-76
2022/12/25 02:37:40;;;;;;;13.30;6.53;;;10.50;92.00;;;;;;4994713;28;20120;-76
2022/12/25 02:40:19;;;;;;;15.02;7.22;;;10.40;92.00;;;;;;4993588;28;20056;-76
2022/12/25 03:08:20;;;;;;;9.88;5.50;;;10.30;92.20;;;;;;4993063;28;20041;-77
2022/12/25 03:13:42;;;;;;;13.98;6.05;;;10.30;92.30;;;;;;4991244;28;20397;-77
2022/12/25 03:17:08;;;;;;;13.20;5.82;;;10.30;92.30;;;;;;4990484;28;20044;-76
2022/12/25 03:26:53;;;;;;;;;;;10.30;92.20;;;;;;4991159;28;20026;-77
2022/12/25 03:27:18;;;;;;;13.27;6.57;;;10.40;92.20;;;;;;4992183;28;20108;-77
2022/12/25 03:32:31;;;;;;;12.23;7.60;;;10.40;92.20;;;;;;4992067;28;20075;-76
2022/12/25 03:35:22;;;;;;;14.55;7.82;;;10.30;92.20;;;;;;4987958;28;20070;-76
2022/12/25 04:36:48;;;;;;;12.75;9.57;;;10.40;92.80;;;;;;4996919;28;20092;-78
2022/12/25 04:39:14;;;;;;;11.70;8.95;;;10.40;92.80;;;;;;4994883;28;20046;-77
2022/12/25 04:41:40;;;;;;;11.05;8.73;;;10.40;92.80;;;;;;4995676;28;20034;-77
2022/12/25 04:44:05;;;;;;;13.32;9.38;;;10.40;92.80;;;;;;4995738;28;20099;-77
2022/12/25 04:46:31;;;;;;;12.48;8.50;;;10.40;92.80;;;;;;4994057;28;20084;-78
2022/12/25 04:48:57;;;;;;;13.35;9.35;;;10.40;92.80;;;;;;4993417;28;20033;-77
2022/12/25 04:51:24;;;;;;;14.90;9.48;;;10.30;92.80;;;;;;4996563;28;20639;-77
2022/12/25 04:53:51;;;;;;;12.10;8.70;;;10.30;92.90;;;;;;4993704;28;21279;-77
2022/12/25 04:56:17;;;;;;;13.80;9.38;;;10.30;92.90;;;;;;4994220;28;20121;-78
2022/12/25 04:58:43;;;;;;;12.25;8.90;;;10.30;92.90;;;;;;4995454;28;20437;-77
2022/12/25 05:01:09;;;;;;;11.43;8.52;;;10.20;92.90;;;;;;4993720;28;20058;-78
2022/12/25 05:03:35;;;;;;;12.05;8.70;;;10.20;92.90;;;;;;4993754;28;20459;-78
2022/12/25 05:06:02;;;;;;;13.02;8.80;;;10.10;93.00;;;;;;4996993;28;20073;-77
2022/12/25 05:08:29;;;;;;;13.50;8.57;;;10.10;93.10;;;;;;4991493;28;20042;-77
2022/12/25 05:10:55;;;;;;;11.15;8.60;;;10.20;93.00;;;;;;4995331;28;20501;-77
2022/12/25 05:13:21;;;;;;;12.35;9.13;;;10.20;93.10;;;;;;4990588;28;20208;-78
2022/12/25 05:15:46;;;;;;;13.18;9.10;;;10.20;93.00;;;;;;4995808;28;20034;-78
2022/12/25 05:18:12;;;;;;;12.00;8.93;;;10.20;92.90;;;;;;4994797;28;20034;-77
2022/12/25 05:20:38;;;;;;;12.63;9.23;;;10.10;93.10;;;;;;4991180;28;20070;-78
2022/12/25 05:23:04;;;;;;;12.27;9.10;;;10.10;93.10;;;;;;4995650;28;20342;-77
2022/12/25 05:25:29;;;;;;;12.88;9.27;;;10.00;93.20;;;;;;4993122;28;20037;-77
2022/12/25 05:27:55;;;;;;;13.25;9.23;;;10.00;93.30;;;;;;4993540;28;20501;-77
2022/12/25 05:30:21;;;;;;;13.82;9.50;;;10.00;93.30;;;;;;4992920;28;20046;-77
2022/12/25 05:32:47;;;;;;;14.82;10.32;;;9.90;93.40;;;;;;4994471;28;20524;-77
2022/12/25 05:35:13;;;;;;;14.57;10.32;;;10.00;93.40;;;;;;4995810;28;20454;-78
2022/12/25 05:37:39;;;;;;;14.90;10.02;;;10.00;93.50;;;;;;4994630;28;20126;-77
2022/12/25 05:40:05;;;;;;;17.23;10.25;;;9.90;93.50;;;;;;4993611;28;20117;-77
2022/12/25 05:42:31;;;;;;;15.20;10.05;;;9.90;93.50;;;;;;4990943;28;20034;-77
2022/12/25 05:44:57;;;;;;;13.02;10.02;;;9.90;93.50;;;;;;4995107;28;20057;-77
2022/12/25 05:47:22;;;;;;;18.65;11.30;;;9.90;93.50;;;;;;4990816;28;20516;-77
2022/12/25 05:49:48;;;;;;;15.55;10.70;;;9.90;93.50;;;;;;4992900;28;20034;-77
2022/12/25 05:52:14;;;;;;;14.43;10.00;;;9.90;93.60;;;;;;4993384;28;20038;-77
2022/12/25 05:54:39;;;;;;;13.45;10.05;;;9.90;93.60;;;;;;4994034;28;20041;-77
2022/12/25 05:57:05;;;;;;;15.68;10.25;;;10.00;93.60;;;;;;4992044;28;20026;-77
2022/12/25 05:59:32;;;;;;;14.95;10.75;;;9.90;93.60;;;;;;4994141;28;20193;-76
2022/12/25 06:01:58;;;;;;;14.18;10.20;;;10.00;93.50;;;;;;4991053;28;20034;-76
2022/12/25 06:04:23;;;;;;;14.35;10.45;;;10.00;93.40;;;;;;4991384;28;20676;-76
2022/12/25 06:06:49;;;;;;;13.32;10.10;;;9.90;93.40;;;;;;4988411;28;20399;-78
2022/12/25 06:09:15;;;;;;;14.02;9.98;;;9.90;93.30;;;;;;4991745;28;20041;-78
2022/12/25 06:11:41;;;;;;;14.20;10.77;;;9.90;93.30;;;;;;4990056;28;20030;-76
2022/12/25 06:14:09;;;;;;;15.20;10.55;;;9.90;93.30;;;;;;4988517;28;20046;-76
2022/12/25 06:16:35;;;;;;;14.18;10.77;;;9.90;93.40;;;;;;4993801;28;20045;-76
2022/12/25 06:19:00;;;;;;;15.48;10.80;;;9.80;93.50;;;;;;4991129;28;20038;-76
2022/12/25 06:21:26;;;;;;;15.82;11.07;;;9.80;93.50;;;;;;4992504;28;20120;-75
2022/12/25 06:23:52;;;;;;;16.52;11.65;;;9.80;93.50;;;;;;4989571;28;20033;-76
2022/12/25 06:26:19;;;;;;;15.85;11.32;;;9.80;93.60;;;;;;4993301;28;20493;-77
2022/12/25 06:28:45;;;;;;;19.20;12.63;;;9.80;93.60;;;;;;4992156;28;20034;-76
2022/12/25 06:31:17;;;;;;;17.15;12.10;;;9.80;93.60;;;;;;4990147;28;20337;-77
2022/12/25 06:33:44;;;;;;;18.83;12.95;;;9.80;93.60;;;;;;4993204;28;20041;-77
2022/12/25 06:36:18;;;;;;;17.73;13.15;;;9.80;93.60;;;;;;4981592;28;20422;-76
2022/12/25 06:38:44;;;;;;;16.55;12.02;;;9.80;93.60;;;;;;4994192;28;20586;-76
2022/12/25 06:41:16;;;;;;;18.13;13.07;;;9.80;93.60;;;;;;4993588;28;20041;-76
2022/12/25 06:43:42;;;;;;;19.13;13.73;;;9.80;93.60;;;;;;4994533;28;20096;-79
2022/12/25 06:46:10;;;;;;;22.00;14.88;;;9.80;93.60;;;;;;4990838;28;20289;-76
2022/12/25 06:48:37;;;;;;;19.20;14.65;;;9.80;93.60;;;;;;4990434;28;20046;-77
2022/12/25 06:51:04;;;;;;;20.80;15.15;;;9.80;93.60;;;;;;4988752;28;20030;-79
2022/12/25 06:53:30;;;;;;;19.60;14.00;;;9.70;93.70;;;;;;4992755;28;20034;-77
2022/12/25 06:56:06;;;;;;;20.42;15.27;;;9.70;93.80;;;;;;4991530;28;20325;-77
2022/12/25 06:58:32;;;;;;;21.70;14.68;;;9.70;93.80;;;;;;4991562;28;20034;-76
2022/12/25 07:00:58;;;;;;;22.20;14.98;;;9.70;93.80;;;;;;4991248;28;20052;-77
2022/12/25 07:03:26;;;;;;;21.35;14.02;;;9.70;93.90;;;;;;4991077;28;20488;-77
2022/12/25 07:05:52;;;;;;;25.27;14.30;;;9.70;93.90;;;;;;4989657;28;20073;-77
2022/12/25 07:08:18;;;;;;;20.48;14.10;;;9.70;93.90;;;;;;4993813;28;20037;-77
2022/12/25 07:10:43;;;;;;;20.73;14.45;;;9.70;93.90;;;;;;4989643;28;20497;-77
2022/12/25 07:13:09;;;;;;;21.92;13.68;;;9.70;94.00;;;;;;4991200;28;20056;-78
2022/12/25 07:15:35;;;;;;;19.30;12.63;;;9.60;94.00;;;;;;4990559;28;21974;-77
2022/12/25 07:18:00;;;;;;;20.75;12.30;;;9.70;94.10;;;;;;4990617;28;20372;-77
2022/12/25 07:20:26;;;;;;;18.70;11.82;;;9.70;94.10;;;;;;4988347;28;20069;-77
2022/12/25 07:22:52;;;;;;;20.02;12.95;;;9.70;94.10;;;;;;4969660;28;20679;-78
2022/12/25 07:25:17;;;;;;;20.45;13.23;;;9.70;94.10;;;;;;4970407;28;20038;-78
2022/12/25 07:27:43;;;;;;;20.23;12.98;;;9.70;94.20;;;;;;4979494;28;20034;-77
2022/12/25 07:30:09;;;;;;;22.55;12.77;;;9.70;94.20;;;;;;4989305;28;20421;-78
2022/12/25 07:32:35;;;;;;;20.85;13.52;;;9.70;94.20;;;;;;4994442;28;20030;-77
2022/12/25 07:35:00;;;;;;;19.45;13.25;;;9.70;94.20;;;;;;4992382;28;20523;-76
2022/12/25 07:37:26;;;;;;;22.48;12.90;;;9.70;94.30;;;;;;4980736;28;20039;-77
2022/12/25 07:39:52;;;;;;;21.33;15.15;;;9.70;94.30;;;;;;4972945;28;20038;-77
2022/12/25 07:42:17;;;;;;;22.88;14.10;;;9.80;94.30;;;;;;4969170;28;20424;-77
2022/12/25 07:44:43;;;;;;;22.88;14.25;;;9.80;94.30;;;;;;4974693;28;20498;-77
2022/12/25 07:47:09;;;;;;;18.75;12.88;;;9.90;94.30;;;;;;4970760;28;20149;-78
2022/12/25 07:49:35;;;;;;;21.58;14.20;;;9.90;94.30;;;;;;4971251;28;20892;-77
2022/12/25 07:52:00;;;;;;;21.55;13.73;;;9.90;94.20;;;;;;4972644;28;20061;-76
2022/12/25 07:54:26;;;;;;;25.08;15.07;;;9.90;94.20;;;;;;4972273;28;20126;-77
2022/12/25 07:56:52;;;;;;;25.90;15.52;;;9.90;94.20;;;;;;4970722;28;20034;-77
2022/12/25 07:59:18;;;;;;;20.67;14.07;;;9.90;94.20;;;;;;4973668;28;20353;-78
2022/12/25 08:01:44;;;;;;;21.75;13.48;;;9.90;94.20;;;;;;4974393;28;20038;-77
2022/12/25 08:04:10;;;;;;;22.48;14.52;;;9.90;94.30;;;;;;4973880;28;20049;-77
2022/12/25 08:06:36;;;;;;;24.95;15.43;;;9.90;94.30;;;;;;4973334;28;20038;-77
2022/12/25 08:09:05;;;;;;;23.17;15.10;;;10.00;94.30;;;;;;4970328;28;20079;-77
2022/12/25 08:11:31;;;;;;;21.05;15.18;;;10.00;94.30;;;;;;4974858;28;20153;-78
2022/12/25 08:13:56;;;;;;;23.67;15.27;;;9.90;94.30;;;;;;4977822;28;20042;-78
2022/12/25 08:16:22;;;;;;;22.00;14.80;;;9.90;94.20;;;;;;4972433;28;20347;-77
2022/12/25 08:18:48;;;;;;;20.48;15.20;;;10.00;94.30;;;;;;4972215;28;20038;-78
2022/12/25 08:21:14;;;;;;;24.08;15.52;;;9.90;94.30;;;;;;4971873;28;20073;-77
2022/12/25 08:23:43;;;;;;;25.05;15.63;;;9.90;94.40;;;;;;4969034;28;20038;-78
2022/12/25 08:26:18;;;;;;;22.95;15.15;;;9.90;94.40;;;;;;4973683;28;20059;-77
2022/12/25 08:28:44;;;;;;;21.67;13.75;;;9.90;94.40;;;;;;4974550;28;20129;-77
2022/12/25 08:31:15;;;;;;;23.10;15.68;;;9.90;94.40;;;;;;4971476;28;20065;-77
2022/12/25 08:33:41;;;;;;;24.05;15.18;;;10.00;94.50;;;;;;4962963;28;20042;-77
2022/12/25 08:36:10;;;;;;;24.35;15.20;;;10.00;94.50;;;;;;4966093;28;20499;-78
2022/12/25 08:38:36;;;;;;;22.00;15.23;;;10.00;94.50;;;;;;4969328;28;20542;-77
2022/12/25 08:41:02;;;;;;;23.17;15.70;;;10.00;94.50;;;;;;4968003;28;20403;-77
2022/12/25 08:43:28;;;;;;;20.63;15.02;;;10.00;94.50;;;;;;4968656;28;20054;-77
2022/12/25 08:45:54;;;;;;;24.55;16.25;;;10.00;94.50;;;;;;4966041;28;20046;-77
2022/12/25 08:48:19;;;;;;;21.67;16.13;;;10.00;94.50;;;;;;4965658;28;20038;-78
2022/12/25 08:50:49;;;;;;;22.58;15.77;;;10.00;94.60;;;;;;4968213;28;20042;-78
2022/12/25 08:53:16;;;;;;;22.77;16.50;;;10.10;94.60;;;;;;4967411;28;20066;-79
2022/12/25 08:55:41;;;;;;;24.33;17.52;;;10.00;94.60;;;;;;4966713;28;20038;-79
2022/12/25 08:58:07;;;;;;;23.73;16.33;;;10.00;94.60;;;;;;4971409;28;20061;-79
2022/12/25 09:00:33;;;;;;;24.52;16.70;;;10.10;94.60;;;;;;4972975;28;20050;-79
2022/12/25 09:02:59;;;;;;;27.20;19.35;;;10.10;94.60;;;;;;4969800;28;20415;-79
2022/12/25 09:05:24;;;;;;;24.92;17.20;;;10.10;94.60;;;;;;4967310;28;20042;-79
2022/12/25 09:07:50;;;;;;;24.48;16.50;;;10.10;94.60;;;;;;4965167;28;20507;-79
2022/12/25 09:10:16;;;;;;;19.73;14.40;;;10.10;94.50;;;;;;4965843;28;20471;-79
2022/12/25 09:12:41;;;;;;;20.02;13.27;;;10.10;94.50;;;;;;4969831;28;20053;-79
2022/12/25 09:15:07;;;;;;;20.30;14.52;;;10.10;94.50;;;;;;4967566;28;20858;-78
2022/12/25 09:17:33;;;;;;;19.95;14.23;;;10.10;94.50;;;;;;4968316;28;20031;-77
2022/12/25 09:19:59;;;;;;;20.23;14.23;;;10.10;94.50;;;;;;4967254;28;20143;-78
2022/12/25 09:22:24;;;;;;;24.30;16.20;;;10.10;94.50;;;;;;4966446;28;20245;-77
2022/12/25 09:24:50;;;;;;;27.35;20.98;;;10.10;94.60;;;;;;4967070;28;20108;-77
2022/12/25 09:27:16;;;;;;;27.50;20.05;;;10.20;94.60;;;;;;4964818;28;20058;-78
2022/12/25 09:29:41;;;;;;;25.80;18.38;;;10.20;94.60;;;;;;4965762;28;20852;-77
2022/12/25 09:32:07;;;;;;;25.38;17.75;;;10.10;94.60;;;;;;4964839;28;20038;-77
2022/12/25 09:34:33;;;;;;;30.20;19.58;;;10.20;94.60;;;;;;4987396;28;20049;-77
2022/12/25 09:36:59;;;;;;;32.22;21.25;;;10.20;94.60;;;;;;4986157;28;20261;-77
2022/12/25 09:39:25;;;;;;;32.92;22.17;;;10.20;94.60;;;;;;4983309;28;20053;-77
2022/12/25 09:41:54;;;;;;;36.88;25.02;;;10.20;94.70;;;;;;4981886;28;20402;-78
2022/12/25 09:44:27;;;;;;;34.60;25.23;;;10.20;94.60;;;;;;4984450;28;20121;-76
2022/12/25 09:46:58;;;;;;;32.30;23.13;;;10.30;94.60;;;;;;4986633;28;20506;-77
2022/12/25 09:49:32;;;;;;;33.45;23.05;;;10.30;94.60;;;;;;4987930;28;20029;-78
2022/12/25 09:52:07;;;;;;;29.10;22.95;;;10.20;94.60;;;;;;4985653;28;20034;-76
2022/12/25 09:54:35;;;;;;;31.90;24.88;;;10.20;94.60;;;;;;4985966;28;20044;-77
2022/12/25 09:57:02;;;;;;;34.22;25.50;;;10.30;94.50;;;;;;4982379;28;20037;-78
2022/12/25 09:59:28;;;;;;;33.65;25.73;;;10.40;94.40;;;;;;4984933;28;20066;-77
2022/12/25 10:02:14;;;;;;;30.50;23.08;;;10.40;94.30;;;;;;4983882;28;20134;-76
2022/12/25 10:04:39;;;;;;;29.05;20.13;;;10.40;94.30;;;;;;4988804;28;20040;-77
2022/12/25 10:07:44;;;;;;;29.25;20.70;;;10.40;94.30;;;;;;4987359;28;20034;-76
2022/12/25 10:10:30;;;;;;;28.38;18.58;;;10.40;94.20;;;;;;4983720;28;20490;-77
2022/12/25 10:13:15;;;;;;;27.50;18.25;;;10.40;94.20;;;;;;4984784;28;20083;-77
2022/12/25 10:15:48;;;;;;;;;;;10.40;94.10;;;;;;4984387;28;20062;-75
2022/12/25 10:18:23;;;;;;;30.60;21.17;;;10.40;94.00;;;;;;4983165;28;20011;-77
2022/12/25 10:20:55;;;;;;;34.10;22.83;;;10.40;94.00;;;;;;4985777;28;20177;-77
2022/12/25 10:23:29;;;;;;;30.45;21.52;;;10.40;94.00;;;;;;4982635;28;20188;-78
2022/12/25 10:25:55;;;;;;;25.88;19.63;;;10.40;94.10;;;;;;4983833;28;20038;-78
2022/12/25 10:28:41;;;;;;;28.55;19.30;;;10.40;94.10;;;;;;4984458;28;20029;-78
2022/12/25 10:31:25;;;;;;;26.38;18.63;;;10.40;94.10;;;;;;4987052;28;20056;-78
2022/12/25 10:33:52;;;;;;;41.58;36.03;;;10.40;94.10;;;;;;4987640;28;20120;-78
2022/12/25 10:36:25;;;;;;;35.13;28.30;;;10.40;94.00;;;;;;4982996;28;20051;-77
2022/12/25 10:38:52;;;;;;;34.40;27.10;;;10.40;94.10;;;;;;4982335;28;20034;-78
2022/12/25 10:41:27;;;;;;;34.58;26.85;;;10.50;94.10;;;;;;4986406;28;20519;-77
2022/12/25 10:43:54;;;;;;;35.60;29.15;;;10.50;94.10;;;;;;4985358;28;20064;-77
2022/12/25 10:46:23;;;;;;;31.52;23.08;;;10.50;94.10;;;;;;4984118;28;20040;-78
2022/12/25 10:48:50;;;;;;;32.08;24.45;;;10.50;94.10;;;;;;4983787;28;20019;-77
2022/12/25 10:51:35;;;;;;;41.30;31.25;;;10.50;94.10;;;;;;4981289;28;20129;-79
2022/12/25 10:54:02;;;;;;;35.75;29.55;;;10.60;94.10;;;;;;4988837;28;20478;-77
2022/12/25 10:56:29;;;;;;;46.88;37.70;;;10.50;94.20;;;;;;4986500;28;20041;-79
2022/12/25 10:59:10;;;;;;;44.97;36.35;;;10.50;94.10;;;;;;4982587;28;20092;-77
2022/12/25 11:01:36;;;;;;;57.88;49.05;;;10.60;94.10;;;;;;4985509;28;20395;-76
2022/12/25 11:04:01;;;;;;;69.18;57.38;;;10.60;94.10;;;;;;4982850;28;20034;-75
2022/12/25 11:06:30;;;;;;;61.90;53.03;;;10.60;94.00;;;;;;4982230;28;20029;-78
2022/12/25 11:08:58;;;;;;;59.88;48.47;;;10.60;94.00;;;;;;4987240;28;20061;-76
2022/12/25 11:11:25;;;;;;;48.53;37.97;;;10.60;94.10;;;;;;4985497;28;20048;-77
2022/12/25 11:13:54;;;;;;;32.15;25.90;;;10.60;94.10;;;;;;4981618;28;20044;-77
2022/12/25 11:16:38;;;;;;;31.23;24.75;;;10.60;94.30;;;;;;4983881;28;20045;-77
2022/12/25 11:19:25;;;;;;;48.78;43.50;;;10.60;94.20;;;;;;4982005;28;20482;-78
2022/12/25 11:21:53;;;;;;;38.88;28.90;;;10.60;94.20;;;;;;4984355;28;20053;-77
2022/12/25 11:24:21;;;;;;;54.20;46.17;;;10.60;94.10;;;;;;4985589;28;20364;-76
2022/12/25 11:26:49;;;;;;;43.42;34.50;;;10.60;94.10;;;;;;4983525;28;20303;-77
2022/12/25 11:29:36;;;;;;;57.70;48.08;;;10.60;94.10;;;;;;4985366;28;20269;-77
2022/12/25 11:32:06;;;;;;;48.53;38.78;;;10.60;94.00;;;;;;4982157;28;20062;-78
2022/12/25 11:34:37;;;;;;;38.22;31.80;;;10.60;94.10;;;;;;4981963;28;20039;-77
2022/12/25 11:37:07;;;;;;;27.45;19.88;;;10.60;94.10;;;;;;4979076;28;20095;-78
2022/12/25 11:39:36;;;;;;;21.98;16.67;;;10.60;94.00;;;;;;4998814;28;20113;-78
2022/12/25 11:42:06;;;;;;;24.38;16.58;;;10.60;94.10;;;;;;4984192;28;20038;-77
2022/12/25 11:44:45;;;;;;;22.80;18.00;;;10.60;94.10;;;;;;4982654;28;20069;-77
2022/12/25 11:47:28;;;;;;;22.67;16.63;;;10.60;94.10;;;;;;4982327;28;20459;-78
2022/12/25 11:50:00;;;;;;;23.30;17.08;;;10.60;94.10;;;;;;4983490;28;20077;-77
2022/12/25 11:52:32;;;;;;;19.73;15.63;;;10.70;94.10;;;;;;4978198;28;20039;-77
2022/12/25 11:55:32;;;;;;;23.48;17.70;;;10.70;94.10;;;;;;4979931;28;20104;-79
2022/12/25 11:58:03;;;;;;;21.23;15.05;;;10.70;94.10;;;;;;4983115;28;20115;-78
2022/12/25 12:00:29;;;;;;;21.40;15.55;;;10.60;94.10;;;;;;4983884;28;20049;-77
2022/12/25 12:03:05;;;;;;;22.50;17.02;;;10.70;94.10;;;;;;4987358;28;20061;-78
2022/12/25 12:05:44;;;;;;;29.60;20.98;;;10.70;94.10;;;;;;4978875;28;20062;-76
2022/12/25 12:08:10;;;;;;;55.03;33.63;;;10.70;94.10;;;;;;4991952;28;20041;-77
2022/12/25 12:10:56;;;;;;;39.38;28.25;;;10.70;94.10;;;;;;4990970;28;20042;-78
2022/12/25 12:13:38;;;;;;;21.67;15.48;;;10.70;94.10;;;;;;4992851;28;20060;-77
2022/12/25 12:16:07;;;;;;;21.58;15.73;;;10.70;94.10;;;;;;4990260;28;20045;-78
2022/12/25 12:18:33;;;;;;;21.70;17.50;;;10.70;94.20;;;;;;4993477;28;20190;-77
2022/12/25 12:21:04;;;;;;;21.63;17.00;;;10.70;94.10;;;;;;4991082;28;20042;-79
2022/12/25 12:23:51;;;;;;;23.17;18.58;;;10.70;94.10;;;;;;4991602;28;20033;-76
2022/12/25 12:26:25;;;;;;;31.60;25.17;;;10.80;94.10;;;;;;4991746;28;20046;-76
2022/12/25 12:28:58;;;;;;;26.48;21.00;;;10.70;94.00;;;;;;4989911;28;21061;-78
2022/12/25 12:31:24;;;;;;;27.30;20.17;;;10.70;94.10;;;;;;4991079;28;20096;-77
2022/12/25 12:33:56;;;;;;;26.45;19.55;;;10.80;94.10;;;;;;4993080;28;20180;-76
2022/12/25 12:36:25;;;;;;;28.30;20.70;;;10.80;94.10;;;;;;4987629;28;20216;-77
2022/12/25 12:38:52;;;;;;;28.85;23.92;;;10.80;94.00;;;;;;4981058;28;20934;-77
2022/12/25 12:41:20;;;;;;;31.35;26.63;;;10.80;94.10;;;;;;4991254;28;20537;-76
2022/12/25 12:44:01;;;;;;;32.70;27.73;;;10.80;94.00;;;;;;4992208;28;20561;-77
2022/12/25 12:46:31;;;;;;;29.83;24.73;;;10.80;94.00;;;;;;4992220;28;20082;-77
2022/12/25 12:49:22;;;;;;;22.77;18.92;;;10.80;94.10;;;;;;4997156;28;20433;-79
2022/12/25 12:51:49;;;;;;;21.88;17.13;;;10.80;94.10;;;;;;4995141;28;20783;-78
2022/12/25 12:54:21;;;;;;;21.08;16.63;;;10.80;94.10;;;;;;4992141;28;20038;-77
2022/12/25 12:56:56;;;;;;;20.90;16.25;;;10.70;94.10;;;;;;4995411;28;20029;-76
2022/12/25 12:59:23;;;;;;;20.55;15.55;;;10.80;94.10;;;;;;4993456;28;20049;-78
2022/12/25 13:02:16;;;;;;;20.42;15.05;;;10.80;94.20;;;;;;4990796;28;21387;-78
2022/12/25 13:05:04;;;;;;;16.90;14.10;;;10.80;94.10;;;;;;4994128;28;20564;-78
2022/12/25 13:08:00;;;;;;;20.75;16.13;;;10.80;94.20;;;;;;4991081;28;20510;-77
2022/12/25 13:10:42;;;;;;;18.92;15.20;;;10.70;94.20;;;;;;4994996;28;20034;-78
2022/12/25 13:13:20;;;;;;;19.02;16.25;;;10.80;94.20;;;;;;4993766;28;20674;-78
2022/12/25 13:15:49;;;;;;;18.02;15.65;;;10.80;94.20;;;;;;4992898;28;20034;-77
2022/12/25 13:18:15;;;;;;;17.30;14.52;;;10.70;94.40;;;;;;4994581;28;20149;-79
2022/12/25 13:21:00;;;;;;;15.98;12.48;;;10.70;94.50;;;;;;4991022;28;20148;-76
2022/12/25 13:23:31;;;;;;;21.63;17.98;;;10.70;94.60;;;;;;4991710;28;20314;-77
2022/12/25 13:26:17;;;;;;;19.17;16.55;;;10.70;94.60;;;;;;4992763;28;20030;-77
2022/12/25 13:28:45;;;;;;;22.50;18.77;;;10.70;94.70;;;;;;4993178;28;20062;-75
2022/12/25 13:31:16;;;;;;;20.88;18.00;;;10.70;94.70;;;;;;4998528;28;20046;-78
2022/12/25 13:34:03;;;;;;;21.85;19.25;;;10.70;94.70;;;;;;5007326;28;21453;-78
2022/12/25 13:36:35;;;;;;;22.85;18.63;;;10.80;94.70;;;;;;4988069;28;20430;-76
2022/12/25 13:39:02;;;;;;;21.98;18.63;;;10.80;94.70;;;;;;4995086;28;20214;-76
2022/12/25 13:44:45;;;;;;;21.15;17.75;;;10.80;94.70;;;;;;4997817;28;20036;-78
2022/12/25 13:47:30;;;;;;;22.88;19.40;;;10.80;94.70;;;;;;4995349;28;20129;-75
2022/12/25 13:49:56;;;;;;;;;;;10.80;94.80;;;;;;4995162;28;20037;-76
2022/12/25 13:52:33;;;;;;;23.88;21.35;;;10.90;94.80;;;;;;4997617;28;20488;-76
2022/12/25 13:55:10;;;;;;;26.17;22.15;;;10.90;94.80;;;;;;4996029;28;21458;-76
2022/12/25 13:57:43;;;;;;;25.50;22.38;;;10.90;94.70;;;;;;4994954;28;20427;-77
2022/12/25 14:00:26;;;;;;;23.77;20.52;;;10.90;94.60;;;;;;4994299;28;20074;-76
2022/12/25 14:02:52;;;;;;;23.30;20.65;;;10.90;94.50;;;;;;4998650;28;20041;-79
2022/12/25 14:05:31;;;;;;;21.80;18.73;;;10.80;94.50;;;;;;4995977;28;20041;-79
2022/12/25 14:07:59;;;;;;;22.67;18.27;;;10.80;94.50;;;;;;4998878;28;20057;-76
2022/12/25 14:10:28;;;;;;;21.20;17.42;;;10.80;94.50;;;;;;5009848;28;20057;-76
2022/12/25 14:12:57;;;;;;;20.77;18.25;;;10.80;94.50;;;;;;4997231;28;20074;-79
2022/12/25 14:15:23;;;;;;;21.33;18.92;;;10.80;94.50;;;;;;4994603;28;20121;-76
2022/12/25 14:17:50;;;;;;;22.50;20.08;;;10.80;94.50;;;;;;4998082;28;20030;-76
2022/12/25 14:20:22;;;;;;;21.33;17.73;;;10.80;94.50;;;;;;4996198;28;20062;-77
2022/12/25 14:22:57;;;;;;;19.95;16.55;;;10.80;94.50;;;;;;4996151;28;20321;-80
2022/12/25 14:25:49;;;;;;;20.65;16.55;;;10.80;94.50;;;;;;4991825;28;20084;-79
2022/12/25 14:28:23;;;;;;;19.98;17.42;;;10.80;94.50;;;;;;4995392;28;20470;-77